This is the latest recevied weather packets stored in our database for station/object HB9BHU-8. If no packets are shown the sender has not sent any weather packets the latest 10 day(s).
| Time | Temp. | Humidity | Pressure | Rain* | Wind** | Luminosity | Snow |
|---|---|---|---|---|---|---|---|
| 1777713313 | 18.33° C | 60% | 1024.3 hPa | 0 mm | - | - | - |
| 1777711504 | 17.22° C | 65% | 1024.8 hPa | 0 mm | - | - | - |
| 1777703441 | 11.11° C | 79% | 1025.4 hPa | 0 mm | - | - | - |
| 1777694435 | 9.44° C | 80% | 1025.2 hPa | 0 mm | - | - | - |
| 1777690813 | 10° C | 74% | 1025.1 hPa | 0 mm | - | - | - |
| 1777689012 | 10° C | 72% | 1025.3 hPa | 0 mm | - | - | - |
| 1777687209 | 10° C | 73% | 1025.2 hPa | 0 mm | - | - | - |
| 1777677345 | 13.33° C | 62% | 1025.3 hPa | 0 mm | - | - | - |
| 1777671039 | 14.44° C | 59% | 1025.3 hPa | 0 mm | - | - | - |
| 1777667438 | 15.56° C | 52% | 1025 hPa | 0 mm | - | - | - |
| 1777661135 | 20.56° C | 37% | 1024.5 hPa | 0 mm | - | - | - |
| 1777648518 | 22.22° C | 34% | 1024.8 hPa | 0 mm | - | - | - |
| 1777645817 | 22.78° C | 36% | 1025.1 hPa | 0 mm | - | - | - |
| 1777644011 | 22.22° C | 37% | 1025.4 hPa | 0 mm | - | - | - |
| 1777638672 | 20° C | 48% | 1026.1 hPa | 0 mm | - | - | - |
| 1777636859 | 20° C | 47% | 1026.2 hPa | 0 mm | - | - | - |
| 1777633250 | 18.33° C | 44% | 1026.9 hPa | 0 mm | - | - | - |
| 1777629635 | 16.67° C | 44% | 1027.5 hPa | 0 mm | - | - | - |
| 1777626931 | 14.44° C | 45% | 1027.8 hPa | 0 mm | - | - | - |
| 1777626019 | 13.89° C | 46% | 1027.7 hPa | 0 mm | - | - | - |
| 1777623307 | 11.67° C | 49% | 1027.9 hPa | 0 mm | - | - | - |
| 1777619759 | 8.89° C | 55% | 1027.8 hPa | 0 mm | - | - | - |
| 1777613441 | 5.56° C | 63% | 1027.6 hPa | 0 mm | - | - | - |
| 1777597257 | 8.89° C | 43% | 1026.3 hPa | 0 mm | - | - | - |
| 1777595463 | 9.44° C | 42% | 1026.3 hPa | 0 mm | - | - | - |
* Rain latest hour (hover to see other rain measurements)
** Current wind speed in m/s (hover to see current wind gust speed)